Shalalth, Canada
Current Conditions -  °F | °C
As of 10:00 AM on Friday 19 Dec 2014 (Local Time) from CYIN Reporting Station
Scattered Clouds Scattered Clouds  
Wind Chill: 23°   Ceiling: Unl
Heat Index: 32°   Visibility: 9mi
Dew Point: 28°   Wind: 13mph
Humidity: 87%   Direction: 150°SSE
Pressure: 29.64"   Gusts: 20mph
Location:  50.73°N, 122.23°W
Report Text: CYIN 191800Z AUTO 15011G17KT 9SM SCT210 00/M02 A2964 RMK SLP068
Loading
Personal Weather Stations






























Interactive Weather Map New forecast layout! Learn more

10-Day Weather Forecast

Advertisements
Track Severe Weather on mobile